PWSweather.com
Personal Weather Stations
Station Observations
IPODRAVI2
Croatia, Trnovec BartoloveckiHR

CroatiaTrnovec BartoloveckiHR

Lat: 46.2947, Lon: 16.3989

Elevation: 535

Station Type: Davis Vantage Pro2 plus

http://www.pljusak.com/trnovec1/wx.html

High Low Average
Temperature 74.4°F23.6°F 62.5°F16.9°F 66.8°F19.3°F
Dew Point 65.3°F18.5°F 61.0°F16.1°F 62.8°F17.1°F
Winds 9.2 mph N14.8 mph N Calm Calm 0.8 mph 1.3 mph
Wind Gusts 12.7 mph20.4 mph -- 1.7 mph2.7 mph
Humidity 95% 72% 87%
Pressure 29.87 in1011.50 in 29.78 in1008.50 in -
Precipitation 0.09 in2.30 in - -
Hour Temp Dew Point Humidity Winds Wind Gusts Pressure Precip Precip Rate Daily Precip Total
12:00 AM 63.6°F17.6°C 61.3°F16.3°C 92% 4.6 mph SW7.4 kmh SW 8.1 mph13.0 kmh 29.82 in1009.8 mb - 0.00 in0.0 mm 0.01 in0.3 mm
12:05 AM 63.8°F17.7°C 61.1°F16.2°C 91% 2.3 mph NW3.7 kmh NW 8.1 mph13.0 kmh 29.83 in1010.2 mb - 0.00 in0.0 mm 0.01 in0.3 mm
12:10 AM 63.9°F17.7°C 61.5°F16.4°C 92% 9.2 mph N14.8 kmh N 12.7 mph20.4 kmh 29.83 in1010.2 mb - 0.00 in0.0 mm 0.01 in0.3 mm
12:15 AM 63.8°F17.7°C 61.5°F16.4°C 92% Calm Calm 3.5 mph5.6 kmh 29.83 in1010.2 mb - 0.00 in0.0 mm 0.01 in0.3 mm
12:20 AM 63.8°F17.7°C 61.4°F16.3°C 92% 3.5 mph N5.6 kmh N 5.8 mph9.3 kmh 29.83 in1010.2 mb - 0.00 in0.0 mm 0.01 in0.3 mm
12:25 AM 63.8°F17.7°C 61.5°F16.4°C 92% 1.2 mph NNE1.9 kmh NNE 3.5 mph5.6 kmh 29.83 in1010.2 mb - 0.00 in0.0 mm 0.01 in0.3 mm
12:30 AM 63.8°F17.7°C 61.4°F16.3°C 92% 4.6 mph NE7.4 kmh NE 8.1 mph13.0 kmh 29.83 in1010.2 mb - 0.00 in0.0 mm 0.01 in0.3 mm
12:35 AM 63.8°F17.7°C 61.4°F16.3°C 92% 1.2 mph 1.9 kmh 2.3 mph3.7 kmh 29.82 in1009.8 mb - 0.00 in0.0 mm 0.01 in0.3 mm
12:40 AM 63.8°F17.7°C 61.4°F16.3°C 92% 2.3 mph NNE3.7 kmh NNE 3.5 mph5.6 kmh 29.82 in1009.8 mb - 0.00 in0.0 mm 0.01 in0.3 mm
12:45 AM 63.8°F17.7°C 61.7°F16.5°C 93% Calm Calm 1.2 mph1.9 kmh 29.82 in1009.8 mb - 0.00 in0.0 mm 0.01 in0.3 mm
12:50 AM 63.7°F17.6°C 61.3°F16.3°C 92% Calm Calm 1.2 mph1.9 kmh 29.83 in1010.2 mb - 0.00 in0.0 mm 0.01 in0.3 mm
12:55 AM 63.7°F17.6°C 61.3°F16.3°C 92% Calm Calm -- 29.83 in1010.2 mb - 0.00 in0.0 mm 0.01 in0.3 mm
01:00 AM 63.7°F17.6°C 61.3°F16.3°C 92% Calm Calm -- 29.82 in1009.8 mb - 0.00 in0.0 mm 0.01 in0.3 mm
01:05 AM 63.6°F17.6°C 61.2°F16.2°C 92% Calm Calm -- 29.83 in1010.2 mb - 0.00 in0.0 mm 0.01 in0.3 mm
01:10 AM 63.6°F17.6°C 61.2°F16.2°C 92% Calm Calm -- 29.83 in1010.2 mb - 0.00 in0.0 mm 0.01 in0.3 mm
01:15 AM 63.6°F17.6°C 61.5°F16.4°C 93% Calm Calm 2.3 mph3.7 kmh 29.83 in1010.2 mb - 0.00 in0.0 mm 0.01 in0.3 mm
01:20 AM 63.5°F17.5°C 61.1°F16.2°C 92% 1.2 mph NE1.9 kmh NE 1.2 mph1.9 kmh 29.83 in1010.2 mb - 0.00 in0.0 mm 0.01 in0.3 mm
01:25 AM 63.4°F17.4°C 61.0°F16.1°C 92% 1.2 mph NE1.9 kmh NE 3.5 mph5.6 kmh 29.83 in1010.2 mb - 0.00 in0.0 mm 0.01 in0.3 mm
01:30 AM 63.4°F17.4°C 61.0°F16.1°C 92% Calm Calm -- 29.83 in1010.2 mb - 0.00 in0.0 mm 0.01 in0.3 mm
01:35 AM 63.4°F17.4°C 61.3°F16.3°C 93% Calm Calm 1.2 mph1.9 kmh 29.83 in1010.2 mb - 0.00 in0.0 mm 0.01 in0.3 mm
01:40 AM 63.4°F17.4°C 61.3°F16.3°C 93% Calm Calm 3.5 mph5.6 kmh 29.82 in1009.8 mb - 0.00 in0.0 mm 0.01 in0.3 mm
01:45 AM 63.4°F17.4°C 61.3°F16.3°C 93% 1.2 mph NE1.9 kmh NE 3.5 mph5.6 kmh 29.82 in1009.8 mb - 0.00 in0.0 mm 0.01 in0.3 mm
01:50 AM 63.4°F17.4°C 61.3°F16.3°C 93% Calm Calm 1.2 mph1.9 kmh 29.82 in1009.8 mb - 0.00 in0.0 mm 0.01 in0.3 mm
01:55 AM 63.4°F17.4°C 61.6°F16.4°C 94% Calm Calm 1.2 mph1.9 kmh 29.82 in1009.8 mb - 0.00 in0.0 mm 0.01 in0.3 mm
02:00 AM 63.4°F17.4°C 61.6°F16.4°C 94% Calm Calm -- 29.83 in1010.2 mb - 0.00 in0.0 mm 0.01 in0.3 mm
02:05 AM 63.4°F17.4°C 61.6°F16.4°C 94% Calm Calm 1.2 mph1.9 kmh 29.83 in1010.2 mb - 0.00 in0.0 mm 0.01 in0.3 mm
02:10 AM 63.4°F17.4°C 61.6°F16.4°C 94% Calm Calm -- 29.83 in1010.2 mb - 0.00 in0.0 mm 0.01 in0.3 mm
02:15 AM 63.4°F17.4°C 61.6°F16.4°C 94% Calm Calm 1.2 mph1.9 kmh 29.83 in1010.2 mb - 0.00 in0.0 mm 0.01 in0.3 mm
02:20 AM 63.3°F17.4°C 61.5°F16.4°C 94% Calm Calm -- 29.83 in1010.2 mb - 0.00 in0.0 mm 0.01 in0.3 mm
02:25 AM 63.2°F17.3°C 61.4°F16.3°C 94% Calm Calm -- 29.83 in1010.2 mb - 0.00 in0.0 mm 0.01 in0.3 mm
02:30 AM 63.2°F17.3°C 61.4°F16.3°C 94% Calm Calm -- 29.83 in1010.2 mb - 0.00 in0.0 mm 0.01 in0.3 mm
02:35 AM 63.1°F17.3°C 61.3°F16.3°C 94% Calm Calm -- 29.83 in1010.2 mb - 0.00 in0.0 mm 0.01 in0.3 mm
02:40 AM 63.1°F17.3°C 61.3°F16.3°C 94% Calm Calm 1.2 mph1.9 kmh 29.83 in1010.2 mb - 0.00 in0.0 mm 0.01 in0.3 mm
02:45 AM 63.1°F17.3°C 61.3°F16.3°C 94% Calm Calm -- 29.83 in1010.2 mb - 0.00 in0.0 mm 0.01 in0.3 mm
02:50 AM 63.0°F17.2°C 61.2°F16.2°C 94% Calm Calm -- 29.83 in1010.2 mb - 0.00 in0.0 mm 0.01 in0.3 mm
02:55 AM 62.9°F17.2°C 61.1°F16.2°C 94% Calm Calm 1.2 mph1.9 kmh 29.83 in1010.2 mb - 0.00 in0.0 mm 0.01 in0.3 mm
03:00 AM 62.8°F17.1°C 61.1°F16.2°C 94% Calm Calm 1.2 mph1.9 kmh 29.83 in1010.2 mb - 0.00 in0.0 mm 0.01 in0.3 mm
03:05 AM 62.8°F17.1°C 61.3°F16.3°C 95% 1.2 mph NW1.9 kmh NW 3.5 mph5.6 kmh 29.83 in1010.2 mb - 0.00 in0.0 mm 0.01 in0.3 mm
03:10 AM 62.8°F17.1°C 61.3°F16.3°C 95% Calm Calm 2.3 mph3.7 kmh 29.83 in1010.2 mb - 0.00 in0.0 mm 0.01 in0.3 mm
03:15 AM 62.8°F17.1°C 61.3°F16.3°C 95% Calm Calm 1.2 mph1.9 kmh 29.83 in1010.2 mb - 0.00 in0.0 mm 0.01 in0.3 mm
03:20 AM 62.8°F17.1°C 61.3°F16.3°C 95% Calm Calm -- 29.83 in1010.2 mb - 0.00 in0.0 mm 0.01 in0.3 mm
03:25 AM 62.9°F17.2°C 61.4°F16.3°C 95% Calm Calm -- 29.83 in1010.2 mb - 0.00 in0.0 mm 0.01 in0.3 mm
03:30 AM 62.9°F17.2°C 61.4°F16.3°C 95% Calm Calm -- 29.83 in1010.2 mb - 0.00 in0.0 mm 0.01 in0.3 mm
03:35 AM 62.9°F17.2°C 61.4°F16.3°C 95% Calm Calm 3.5 mph5.6 kmh 29.83 in1010.2 mb - 0.00 in0.0 mm 0.01 in0.3 mm
03:40 AM 62.9°F17.2°C 61.4°F16.3°C 95% Calm Calm -- 29.83 in1010.2 mb - 0.00 in0.0 mm 0.01 in0.3 mm
03:45 AM 62.9°F17.2°C 61.4°F16.3°C 95% Calm Calm -- 29.83 in1010.2 mb - 0.00 in0.0 mm 0.01 in0.3 mm
03:50 AM 62.9°F17.2°C 61.4°F16.3°C 95% Calm Calm -- 29.84 in1010.5 mb - 0.00 in0.0 mm 0.01 in0.3 mm
03:55 AM 62.9°F17.2°C 61.4°F16.3°C 95% Calm Calm -- 29.84 in1010.5 mb - 0.00 in0.0 mm 0.01 in0.3 mm
04:00 AM 62.8°F17.1°C 61.3°F16.3°C 95% 1.2 mph NW1.9 kmh NW 2.3 mph3.7 kmh 29.84 in1010.5 mb - 0.00 in0.0 mm 0.01 in0.3 mm
04:05 AM 62.7°F17.1°C 61.2°F16.2°C 95% Calm Calm -- 29.83 in1010.2 mb - 0.00 in0.0 mm 0.01 in0.3 mm
04:10 AM 62.7°F17.1°C 61.2°F16.2°C 95% Calm Calm 2.3 mph3.7 kmh 29.83 in1010.2 mb - 0.00 in0.0 mm 0.01 in0.3 mm
04:15 AM 62.7°F17.1°C 61.2°F16.2°C 95% Calm Calm -- 29.83 in1010.2 mb - 0.00 in0.0 mm 0.01 in0.3 mm
04:20 AM 62.6°F17.0°C 61.1°F16.2°C 95% Calm Calm -- 29.83 in1010.2 mb - 0.00 in0.0 mm 0.01 in0.3 mm
04:25 AM 62.6°F17.0°C 61.1°F16.2°C 95% Calm Calm -- 29.83 in1010.2 mb - 0.00 in0.0 mm 0.01 in0.3 mm
04:30 AM 62.6°F17.0°C 61.1°F16.2°C 95% Calm Calm -- 29.83 in1010.2 mb - 0.00 in0.0 mm 0.01 in0.3 mm
04:35 AM 62.6°F17.0°C 61.1°F16.2°C 95% Calm Calm -- 29.83 in1010.2 mb - 0.00 in0.0 mm 0.01 in0.3 mm
04:40 AM 62.6°F17.0°C 61.1°F16.2°C 95% Calm Calm -- 29.83 in1010.2 mb - 0.01 in0.3 mm 0.02 in0.5 mm
04:45 AM 62.6°F17.0°C 61.1°F16.2°C 95% Calm Calm -- 29.83 in1010.2 mb - 0.00 in0.0 mm 0.02 in0.5 mm
04:50 AM 62.6°F17.0°C 61.1°F16.2°C 95% Calm Calm -- 29.84 in1010.5 mb - 0.00 in0.0 mm 0.02 in0.5 mm
04:55 AM 62.5°F16.9°C 61.1°F16.2°C 95% Calm Calm -- 29.84 in1010.5 mb - 0.00 in0.0 mm 0.02 in0.5 mm
05:00 AM 62.5°F16.9°C 61.0°F16.1°C 95% Calm Calm -- 29.84 in1010.5 mb - 0.00 in0.0 mm 0.02 in0.5 mm
05:05 AM 62.6°F17.0°C 61.1°F16.2°C 95% Calm Calm -- 29.84 in1010.5 mb - 0.00 in0.0 mm 0.02 in0.5 mm
05:10 AM 62.6°F17.0°C 61.1°F16.2°C 95% Calm Calm -- 29.84 in1010.5 mb - 0.00 in0.0 mm 0.02 in0.5 mm
05:15 AM 62.7°F17.1°C 61.2°F16.2°C 95% Calm Calm -- 29.85 in1010.8 mb - 0.00 in0.0 mm 0.02 in0.5 mm
05:20 AM 62.7°F17.1°C 61.2°F16.2°C 95% Calm Calm -- 29.85 in1010.8 mb - 0.00 in0.0 mm 0.02 in0.5 mm
05:25 AM 62.7°F17.1°C 61.2°F16.2°C 95% Calm Calm 1.2 mph1.9 kmh 29.85 in1010.8 mb - 0.00 in0.0 mm 0.02 in0.5 mm
05:30 AM 62.7°F17.1°C 61.2°F16.2°C 95% Calm Calm 1.2 mph1.9 kmh 29.85 in1010.8 mb - 0.00 in0.0 mm 0.02 in0.5 mm
05:35 AM 62.7°F17.1°C 61.2°F16.2°C 95% Calm Calm -- 29.85 in1010.8 mb - 0.00 in0.0 mm 0.02 in0.5 mm
05:40 AM 62.7°F17.1°C 61.2°F16.2°C 95% Calm Calm -- 29.85 in1010.8 mb - 0.00 in0.0 mm 0.02 in0.5 mm
05:45 AM 62.7°F17.1°C 61.2°F16.2°C 95% Calm Calm 1.2 mph1.9 kmh 29.86 in1011.2 mb - 0.00 in0.0 mm 0.02 in0.5 mm
05:50 AM 62.8°F17.1°C 61.3°F16.3°C 95% Calm Calm 1.2 mph1.9 kmh 29.86 in1011.2 mb - 0.00 in0.0 mm 0.02 in0.5 mm
05:55 AM 62.8°F17.1°C 61.3°F16.3°C 95% 1.2 mph W1.9 kmh W 3.5 mph5.6 kmh 29.86 in1011.2 mb - 0.00 in0.0 mm 0.02 in0.5 mm
06:00 AM 62.8°F17.1°C 61.3°F16.3°C 95% Calm Calm 1.2 mph1.9 kmh 29.86 in1011.2 mb - 0.01 in0.3 mm 0.02 in0.5 mm
06:05 AM 62.8°F17.1°C 61.3°F16.3°C 95% Calm Calm 1.2 mph1.9 kmh 29.86 in1011.2 mb - 0.00 in0.0 mm 0.02 in0.5 mm
06:10 AM 62.8°F17.1°C 61.3°F16.3°C 95% Calm Calm -- 29.85 in1010.8 mb - 0.00 in0.0 mm 0.02 in0.5 mm
06:15 AM 62.7°F17.1°C 61.3°F16.3°C 95% Calm Calm -- 29.86 in1011.2 mb - 0.00 in0.0 mm 0.02 in0.5 mm
06:20 AM 62.8°F17.1°C 61.3°F16.3°C 95% Calm Calm -- 29.86 in1011.2 mb - 0.00 in0.0 mm 0.02 in0.5 mm
06:25 AM 62.8°F17.1°C 61.4°F16.3°C 95% 1.2 mph W1.9 kmh W 2.3 mph3.7 kmh 29.86 in1011.2 mb - 0.00 in0.0 mm 0.02 in0.5 mm
06:30 AM 62.9°F17.2°C 61.4°F16.3°C 95% Calm Calm -- 29.86 in1011.2 mb - 0.00 in0.0 mm 0.02 in0.5 mm
06:35 AM 62.9°F17.2°C 61.4°F16.3°C 95% Calm Calm -- 29.86 in1011.2 mb - 0.00 in0.0 mm 0.02 in0.5 mm
06:40 AM 62.9°F17.2°C 61.5°F16.4°C 95% Calm Calm -- 29.86 in1011.2 mb - 0.00 in0.0 mm 0.02 in0.5 mm
06:45 AM 63.0°F17.2°C 61.5°F16.4°C 95% Calm Calm 1.2 mph1.9 kmh 29.87 in1011.5 mb - 0.00 in0.0 mm 0.02 in0.5 mm
06:50 AM 63.0°F17.2°C 61.5°F16.4°C 95% Calm Calm 1.2 mph1.9 kmh 29.87 in1011.5 mb - 0.00 in0.0 mm 0.02 in0.5 mm
06:55 AM 63.0°F17.2°C 61.6°F16.4°C 95% Calm Calm 2.3 mph3.7 kmh 29.87 in1011.5 mb - 0.00 in0.0 mm 0.02 in0.5 mm
07:00 AM 63.1°F17.3°C 61.6°F16.4°C 95% Calm Calm -- 29.86 in1011.2 mb - 0.00 in0.0 mm 0.02 in0.5 mm
07:05 AM 63.1°F17.3°C 61.6°F16.4°C 95% Calm Calm -- 29.86 in1011.2 mb - 0.00 in0.0 mm 0.02 in0.5 mm
07:10 AM 63.2°F17.3°C 61.7°F16.5°C 95% Calm Calm -- 29.86 in1011.2 mb - 0.00 in0.0 mm 0.02 in0.5 mm
07:15 AM 63.1°F17.3°C 61.7°F16.5°C 95% 2.3 mph SW3.7 kmh SW 3.5 mph5.6 kmh 29.87 in1011.5 mb - 0.00 in0.0 mm 0.02 in0.5 mm
07:20 AM 63.2°F17.3°C 61.4°F16.3°C 94% 2.3 mph SW3.7 kmh SW 3.5 mph5.6 kmh 29.87 in1011.5 mb - 0.00 in0.0 mm 0.02 in0.5 mm
07:25 AM 63.2°F17.3°C 61.4°F16.3°C 94% 1.2 mph SW1.9 kmh SW 3.5 mph5.6 kmh 29.87 in1011.5 mb - 0.00 in0.0 mm 0.02 in0.5 mm
07:30 AM 63.3°F17.4°C 61.5°F16.4°C 94% 1.2 mph SW1.9 kmh SW 3.5 mph5.6 kmh 29.87 in1011.5 mb - 0.00 in0.0 mm 0.02 in0.5 mm
07:35 AM 63.4°F17.4°C 61.9°F16.6°C 95% Calm Calm 1.2 mph1.9 kmh 29.87 in1011.5 mb - 0.01 in0.3 mm 0.03 in0.8 mm
07:40 AM 63.4°F17.4°C 61.9°F16.6°C 95% Calm Calm -- 29.87 in1011.5 mb - 0.00 in0.0 mm 0.03 in0.8 mm
07:45 AM 63.4°F17.4°C 61.6°F16.4°C 94% Calm Calm -- 29.87 in1011.5 mb - 0.01 in0.3 mm 0.04 in1.0 mm
07:50 AM 63.4°F17.4°C 61.6°F16.4°C 94% Calm Calm 2.3 mph3.7 kmh 29.87 in1011.5 mb - 0.00 in0.0 mm 0.04 in1.0 mm
07:55 AM 63.5°F17.5°C 61.7°F16.5°C 94% Calm Calm -- 29.86 in1011.2 mb - 0.00 in0.0 mm 0.04 in1.0 mm
08:00 AM 63.7°F17.6°C 61.9°F16.6°C 94% 1.2 mph NE1.9 kmh NE 2.3 mph3.7 kmh 29.85 in1010.8 mb - 0.00 in0.0 mm 0.04 in1.0 mm
08:05 AM 63.8°F17.7°C 62.0°F16.7°C 94% Calm Calm 2.3 mph3.7 kmh 29.85 in1010.8 mb - 0.00 in0.0 mm 0.04 in1.0 mm
08:10 AM 63.9°F17.7°C 62.1°F16.7°C 94% Calm Calm -- 29.86 in1011.2 mb - 0.00 in0.0 mm 0.04 in1.0 mm
08:15 AM 64.0°F17.8°C 62.3°F16.8°C 94% Calm Calm -- 29.86 in1011.2 mb - 0.00 in0.0 mm 0.04 in1.0 mm
08:20 AM 64.2°F17.9°C 62.4°F16.9°C 94% Calm Calm -- 29.86 in1011.2 mb - 0.00 in0.0 mm 0.04 in1.0 mm
08:25 AM 64.3°F17.9°C 62.2°F16.8°C 93% Calm Calm -- 29.85 in1010.8 mb - 0.00 in0.0 mm 0.04 in1.0 mm
08:30 AM 64.4°F18.0°C 62.3°F16.8°C 93% Calm Calm -- 29.85 in1010.8 mb - 0.00 in0.0 mm 0.04 in1.0 mm
08:35 AM 64.5°F18.1°C 62.1°F16.7°C 92% Calm Calm -- 29.85 in1010.8 mb - 0.00 in0.0 mm 0.04 in1.0 mm
08:40 AM 64.6°F18.1°C 61.6°F16.4°C 90% Calm Calm -- 29.85 in1010.8 mb - 0.00 in0.0 mm 0.04 in1.0 mm
08:45 AM 64.7°F18.2°C 61.7°F16.5°C 90% Calm Calm -- 29.86 in1011.2 mb - 0.00 in0.0 mm 0.04 in1.0 mm
08:50 AM 64.9°F18.3°C 61.9°F16.6°C 90% Calm Calm 1.2 mph1.9 kmh 29.86 in1011.2 mb - 0.00 in0.0 mm 0.04 in1.0 mm
08:55 AM 65.0°F18.3°C 62.3°F16.8°C 91% Calm Calm -- 29.86 in1011.2 mb - 0.00 in0.0 mm 0.04 in1.0 mm
09:00 AM 65.0°F18.3°C 62.0°F16.7°C 90% Calm Calm -- 29.86 in1011.2 mb - 0.00 in0.0 mm 0.04 in1.0 mm
09:05 AM 65.0°F18.3°C 62.3°F16.8°C 91% Calm Calm 1.2 mph1.9 kmh 29.86 in1011.2 mb - 0.00 in0.0 mm 0.04 in1.0 mm
09:10 AM 65.0°F18.3°C 62.0°F16.7°C 90% Calm Calm -- 29.86 in1011.2 mb - 0.00 in0.0 mm 0.04 in1.0 mm
09:15 AM 65.0°F18.3°C 62.3°F16.8°C 91% Calm Calm -- 29.87 in1011.5 mb - 0.00 in0.0 mm 0.04 in1.0 mm
09:20 AM 65.0°F18.3°C 62.3°F16.8°C 91% Calm Calm 1.2 mph1.9 kmh 29.87 in1011.5 mb - 0.00 in0.0 mm 0.04 in1.0 mm
09:25 AM 65.1°F18.4°C 62.4°F16.9°C 91% Calm Calm -- 29.87 in1011.5 mb - 0.00 in0.0 mm 0.04 in1.0 mm
09:30 AM 65.1°F18.4°C 62.4°F16.9°C 91% Calm Calm -- 29.87 in1011.5 mb - 0.00 in0.0 mm 0.04 in1.0 mm
09:35 AM 65.1°F18.4°C 62.1°F16.7°C 90% Calm Calm -- 29.87 in1011.5 mb - 0.00 in0.0 mm 0.04 in1.0 mm
09:40 AM 65.0°F18.3°C 62.3°F16.8°C 91% Calm Calm -- 29.87 in1011.5 mb - 0.01 in0.3 mm 0.05 in1.3 mm
09:45 AM 65.0°F18.3°C 62.6°F17.0°C 92% Calm Calm 1.2 mph1.9 kmh 29.87 in1011.5 mb - 0.01 in0.3 mm 0.06 in1.5 mm
09:50 AM 64.9°F18.3°C 62.8°F17.1°C 93% Calm Calm -- 29.87 in1011.5 mb - 0.01 in0.3 mm 0.06 in1.5 mm
09:55 AM 65.0°F18.3°C 62.9°F17.2°C 93% Calm Calm -- 29.87 in1011.5 mb - 0.01 in0.3 mm 0.07 in1.8 mm
10:00 AM 65.0°F18.3°C 62.9°F17.2°C 93% Calm Calm 1.2 mph1.9 kmh 29.87 in1011.5 mb - 0.00 in0.0 mm 0.07 in1.8 mm
10:05 AM 65.1°F18.4°C 63.0°F17.2°C 93% Calm Calm 1.2 mph1.9 kmh 29.87 in1011.5 mb - 0.00 in0.0 mm 0.07 in1.8 mm
10:10 AM 65.2°F18.4°C 63.1°F17.3°C 93% Calm Calm -- 29.87 in1011.5 mb - 0.00 in0.0 mm 0.07 in1.8 mm
10:15 AM 65.3°F18.5°C 63.2°F17.3°C 93% Calm Calm 1.2 mph1.9 kmh 29.87 in1011.5 mb - 0.01 in0.3 mm 0.08 in2.0 mm
10:20 AM 65.2°F18.4°C 62.8°F17.1°C 92% 2.3 mph N3.7 kmh N 2.3 mph3.7 kmh 29.87 in1011.5 mb - 0.00 in0.0 mm 0.08 in2.0 mm
10:25 AM 65.1°F18.4°C 62.4°F16.9°C 91% Calm Calm 1.2 mph1.9 kmh 29.87 in1011.5 mb - 0.00 in0.0 mm 0.08 in2.0 mm
10:30 AM 65.0°F18.3°C 62.4°F16.9°C 91% 1.2 mph N1.9 kmh N 2.3 mph3.7 kmh 29.87 in1011.5 mb - 0.00 in0.0 mm 0.08 in2.0 mm
10:35 AM 65.0°F18.3°C 62.0°F16.7°C 90% Calm Calm 1.2 mph1.9 kmh 29.87 in1011.5 mb - 0.00 in0.0 mm 0.08 in2.0 mm
10:40 AM 65.0°F18.3°C 62.3°F16.8°C 91% Calm Calm -- 29.87 in1011.5 mb - 0.00 in0.0 mm 0.08 in2.0 mm
10:45 AM 65.0°F18.3°C 62.3°F16.8°C 91% Calm Calm -- 29.86 in1011.2 mb - 0.00 in0.0 mm 0.08 in2.0 mm
10:50 AM 65.1°F18.4°C 62.1°F16.7°C 90% Calm Calm -- 29.87 in1011.5 mb - 0.00 in0.0 mm 0.08 in2.0 mm
10:55 AM 65.2°F18.4°C 62.2°F16.8°C 90% Calm Calm -- 29.86 in1011.2 mb - 0.00 in0.0 mm 0.08 in2.0 mm
11:00 AM 65.5°F18.6°C 62.2°F16.8°C 89% Calm Calm -- 29.86 in1011.2 mb - 0.00 in0.0 mm 0.08 in2.0 mm
11:05 AM 65.7°F18.7°C 62.4°F16.9°C 89% Calm Calm -- 29.86 in1011.2 mb - 0.00 in0.0 mm 0.08 in2.0 mm
11:10 AM 65.9°F18.8°C 61.9°F16.6°C 87% Calm Calm -- 29.86 in1011.2 mb - 0.00 in0.0 mm 0.08 in2.0 mm
11:15 AM 66.1°F18.9°C 62.8°F17.1°C 89% 1.2 mph E1.9 kmh E 3.5 mph5.6 kmh 29.86 in1011.2 mb - 0.00 in0.0 mm 0.08 in2.0 mm
11:20 AM 66.7°F19.3°C 62.7°F17.1°C 87% 1.2 mph ENE1.9 kmh ENE 2.3 mph3.7 kmh 29.86 in1011.2 mb - 0.00 in0.0 mm 0.08 in2.0 mm
11:25 AM 67.2°F19.6°C 62.5°F16.9°C 85% Calm Calm 1.2 mph1.9 kmh 29.86 in1011.2 mb - 0.00 in0.0 mm 0.08 in2.0 mm
11:30 AM 67.2°F19.6°C 62.9°F17.2°C 86% 1.2 mph ENE1.9 kmh ENE 3.5 mph5.6 kmh 29.86 in1011.2 mb - 0.00 in0.0 mm 0.08 in2.0 mm
11:35 AM 67.4°F19.7°C 63.1°F17.3°C 86% 1.2 mph E1.9 kmh E 3.5 mph5.6 kmh 29.86 in1011.2 mb - 0.00 in0.0 mm 0.08 in2.0 mm
11:40 AM 67.6°F19.8°C 63.6°F17.6°C 87% 2.3 mph NE3.7 kmh NE 3.5 mph5.6 kmh 29.85 in1010.8 mb - 0.00 in0.0 mm 0.08 in2.0 mm
11:45 AM 67.5°F19.7°C 63.2°F17.3°C 86% 1.2 mph NE1.9 kmh NE 3.5 mph5.6 kmh 29.86 in1011.2 mb - 0.00 in0.0 mm 0.08 in2.0 mm
11:50 AM 67.5°F19.7°C 63.5°F17.5°C 87% 3.5 mph ENE5.6 kmh ENE 3.5 mph5.6 kmh 29.86 in1011.2 mb - 0.00 in0.0 mm 0.08 in2.0 mm
11:55 AM 67.6°F19.8°C 63.3°F17.4°C 86% 3.5 mph ENE5.6 kmh ENE 4.6 mph7.4 kmh 29.86 in1011.2 mb - 0.00 in0.0 mm 0.08 in2.0 mm
12:00 PM 67.5°F19.7°C 63.2°F17.3°C 86% 1.2 mph NNE1.9 kmh NNE 4.6 mph7.4 kmh 29.86 in1011.2 mb - 0.00 in0.0 mm 0.08 in2.0 mm
12:05 PM 67.3°F19.6°C 63.0°F17.2°C 86% Calm Calm 1.2 mph1.9 kmh 29.86 in1011.2 mb - 0.00 in0.0 mm 0.08 in2.0 mm
12:10 PM 67.2°F19.6°C 62.9°F17.2°C 86% 1.2 mph E1.9 kmh E 2.3 mph3.7 kmh 29.85 in1010.8 mb - 0.00 in0.0 mm 0.08 in2.0 mm
12:15 PM 67.1°F19.5°C 62.8°F17.1°C 86% Calm Calm -- 29.85 in1010.8 mb - 0.00 in0.0 mm 0.08 in2.0 mm
12:20 PM 67.1°F19.5°C 62.8°F17.1°C 86% Calm Calm -- 29.85 in1010.8 mb - 0.00 in0.0 mm 0.08 in2.0 mm
12:25 PM 67.4°F19.7°C 62.7°F17.1°C 85% Calm Calm 1.2 mph1.9 kmh 29.85 in1010.8 mb - 0.00 in0.0 mm 0.08 in2.0 mm
12:30 PM 67.6°F19.8°C 62.9°F17.2°C 85% Calm Calm -- 29.85 in1010.8 mb - 0.00 in0.0 mm 0.08 in2.0 mm
12:35 PM 67.6°F19.8°C 62.9°F17.2°C 85% Calm Calm -- 29.85 in1010.8 mb - 0.00 in0.0 mm 0.08 in2.0 mm
12:40 PM 67.7°F19.8°C 63.3°F17.4°C 86% 2.3 mph N3.7 kmh N 3.5 mph5.6 kmh 29.84 in1010.5 mb - 0.00 in0.0 mm 0.08 in2.0 mm
12:45 PM 67.6°F19.8°C 63.3°F17.4°C 86% 3.5 mph NNE5.6 kmh NNE 5.8 mph9.3 kmh 29.84 in1010.5 mb - 0.00 in0.0 mm 0.08 in2.0 mm
12:50 PM 67.5°F19.7°C 63.5°F17.5°C 87% 2.3 mph NNE3.7 kmh NNE 3.5 mph5.6 kmh 29.84 in1010.5 mb - 0.00 in0.0 mm 0.08 in2.0 mm
12:55 PM 67.3°F19.6°C 63.0°F17.2°C 86% 3.5 mph NNE5.6 kmh NNE 4.6 mph7.4 kmh 29.84 in1010.5 mb - 0.00 in0.0 mm 0.08 in2.0 mm
01:00 PM 67.2°F19.6°C 63.2°F17.3°C 87% Calm Calm 1.2 mph1.9 kmh 29.84 in1010.5 mb - 0.00 in0.0 mm 0.08 in2.0 mm
01:05 PM 67.1°F19.5°C 63.1°F17.3°C 87% 1.2 mph NNE1.9 kmh NNE 3.5 mph5.6 kmh 29.84 in1010.5 mb - 0.00 in0.0 mm 0.08 in2.0 mm
01:10 PM 67.1°F19.5°C 63.1°F17.3°C 87% 1.2 mph NE1.9 kmh NE -- 29.84 in1010.5 mb - 0.00 in0.0 mm 0.08 in2.0 mm
01:15 PM 67.2°F19.6°C 63.2°F17.3°C 87% Calm Calm 3.5 mph5.6 kmh 29.84 in1010.5 mb - 0.00 in0.0 mm 0.08 in2.0 mm
01:20 PM 67.3°F19.6°C 63.3°F17.4°C 87% 1.2 mph NE1.9 kmh NE 2.3 mph3.7 kmh 29.84 in1010.5 mb - 0.00 in0.0 mm 0.08 in2.0 mm
01:25 PM 67.4°F19.7°C 63.1°F17.3°C 86% 1.2 mph NE1.9 kmh NE 3.5 mph5.6 kmh 29.84 in1010.5 mb - 0.00 in0.0 mm 0.08 in2.0 mm
01:30 PM 67.6°F19.8°C 63.2°F17.3°C 86% 1.2 mph NE1.9 kmh NE 4.6 mph7.4 kmh 29.83 in1010.2 mb - 0.00 in0.0 mm 0.08 in2.0 mm
01:35 PM 67.9°F19.9°C 63.9°F17.7°C 87% Calm Calm 3.5 mph5.6 kmh 29.83 in1010.2 mb - 0.00 in0.0 mm 0.08 in2.0 mm
01:40 PM 68.4°F20.2°C 63.7°F17.6°C 85% 2.3 mph NE3.7 kmh NE 3.5 mph5.6 kmh 29.82 in1009.8 mb - 0.00 in0.0 mm 0.08 in2.0 mm
01:45 PM 68.7°F20.4°C 63.7°F17.6°C 84% 3.5 mph NE5.6 kmh NE 5.8 mph9.3 kmh 29.82 in1009.8 mb - 0.00 in0.0 mm 0.08 in2.0 mm
01:50 PM 68.9°F20.5°C 63.8°F17.7°C 84% 2.3 mph ENE3.7 kmh ENE 4.6 mph7.4 kmh 29.83 in1010.2 mb - 0.00 in0.0 mm 0.08 in2.0 mm
01:55 PM 69.6°F20.9°C 63.5°F17.5°C 81% 3.5 mph ENE5.6 kmh ENE 3.5 mph5.6 kmh 29.83 in1010.2 mb - 0.00 in0.0 mm 0.08 in2.0 mm
02:00 PM 70.6°F21.4°C 64.8°F18.2°C 82% 2.3 mph ENE3.7 kmh ENE 5.8 mph9.3 kmh 29.83 in1010.2 mb - 0.00 in0.0 mm 0.08 in2.0 mm
02:05 PM 70.7°F21.5°C 64.5°F18.1°C 81% 3.5 mph NE5.6 kmh NE 4.6 mph7.4 kmh 29.83 in1010.2 mb - 0.00 in0.0 mm 0.08 in2.0 mm
02:10 PM 70.6°F21.4°C 64.8°F18.2°C 82% 2.3 mph ENE3.7 kmh ENE 3.5 mph5.6 kmh 29.82 in1009.8 mb - 0.00 in0.0 mm 0.08 in2.0 mm
02:15 PM 71.1°F21.7°C 65.3°F18.5°C 82% 2.3 mph NE3.7 kmh NE 3.5 mph5.6 kmh 29.82 in1009.8 mb - 0.00 in0.0 mm 0.08 in2.0 mm
02:20 PM 71.4°F21.9°C 64.2°F17.9°C 78% 4.6 mph NE7.4 kmh NE 5.8 mph9.3 kmh 29.82 in1009.8 mb - 0.00 in0.0 mm 0.08 in2.0 mm
02:25 PM 71.1°F21.7°C 64.3°F17.9°C 79% 3.5 mph NE5.6 kmh NE 5.8 mph9.3 kmh 29.82 in1009.8 mb - 0.00 in0.0 mm 0.08 in2.0 mm
02:30 PM 70.8°F21.6°C 64.3°F17.9°C 80% 3.5 mph NNE5.6 kmh NNE 5.8 mph9.3 kmh 29.82 in1009.8 mb - 0.00 in0.0 mm 0.08 in2.0 mm
02:35 PM 71.2°F21.8°C 64.4°F18.0°C 79% 3.5 mph NE5.6 kmh NE 3.5 mph5.6 kmh 29.82 in1009.8 mb - 0.00 in0.0 mm 0.08 in2.0 mm
02:40 PM 71.1°F21.7°C 64.3°F17.9°C 79% 2.3 mph NE3.7 kmh NE 4.6 mph7.4 kmh 29.82 in1009.8 mb - 0.00 in0.0 mm 0.08 in2.0 mm
02:45 PM 71.3°F21.8°C 64.4°F18.0°C 79% Calm Calm 3.5 mph5.6 kmh 29.82 in1009.8 mb - 0.00 in0.0 mm 0.08 in2.0 mm
02:50 PM 71.6°F22.0°C 64.4°F18.0°C 78% 2.3 mph E3.7 kmh E 3.5 mph5.6 kmh 29.82 in1009.8 mb - 0.00 in0.0 mm 0.08 in2.0 mm
02:55 PM 71.6°F22.0°C 64.3°F17.9°C 78% 1.2 mph N1.9 kmh N 3.5 mph5.6 kmh 29.82 in1009.8 mb - 0.00 in0.0 mm 0.08 in2.0 mm
03:00 PM 72.6°F22.6°C 64.6°F18.1°C 76% 1.2 mph NE1.9 kmh NE 8.1 mph13.0 kmh 29.81 in1009.5 mb - 0.00 in0.0 mm 0.08 in2.0 mm
03:05 PM 72.5°F22.5°C 64.5°F18.1°C 76% 3.5 mph NE5.6 kmh NE 4.6 mph7.4 kmh 29.81 in1009.5 mb - 0.00 in0.0 mm 0.08 in2.0 mm
03:10 PM 72.4°F22.4°C 64.8°F18.2°C 77% 1.2 mph NE1.9 kmh NE 3.5 mph5.6 kmh 29.81 in1009.5 mb - 0.00 in0.0 mm 0.08 in2.0 mm
03:15 PM 72.1°F22.3°C 63.8°F17.7°C 75% 1.2 mph NE1.9 kmh NE 1.2 mph1.9 kmh 29.81 in1009.5 mb - 0.00 in0.0 mm 0.08 in2.0 mm
03:20 PM 72.5°F22.5°C 64.5°F18.1°C 76% 2.3 mph NE3.7 kmh NE 5.8 mph9.3 kmh 29.81 in1009.5 mb - 0.00 in0.0 mm 0.08 in2.0 mm
03:25 PM 72.7°F22.6°C 64.3°F17.9°C 75% 3.5 mph N5.6 kmh N 3.5 mph5.6 kmh 29.81 in1009.5 mb - 0.00 in0.0 mm 0.08 in2.0 mm
03:30 PM 73.1°F22.8°C 65.0°F18.3°C 76% 2.3 mph NE3.7 kmh NE 3.5 mph5.6 kmh 29.80 in1009.1 mb - 0.00 in0.0 mm 0.08 in2.0 mm
03:35 PM 73.0°F22.8°C 64.6°F18.1°C 75% 3.5 mph NE5.6 kmh NE 4.6 mph7.4 kmh 29.80 in1009.1 mb - 0.00 in0.0 mm 0.08 in2.0 mm
03:40 PM 72.9°F22.7°C 64.5°F18.1°C 75% Calm Calm 1.2 mph1.9 kmh 29.80 in1009.1 mb - 0.00 in0.0 mm 0.08 in2.0 mm
03:45 PM 73.4°F23.0°C 64.6°F18.1°C 74% 1.2 mph E1.9 kmh E 3.5 mph5.6 kmh 29.80 in1009.1 mb - 0.00 in0.0 mm 0.08 in2.0 mm
03:50 PM 73.4°F23.0°C 64.6°F18.1°C 74% Calm Calm -- 29.79 in1008.8 mb - 0.00 in0.0 mm 0.08 in2.0 mm
03:55 PM 73.8°F23.2°C 64.6°F18.1°C 73% 1.2 mph NE1.9 kmh NE -- 29.79 in1008.8 mb - 0.00 in0.0 mm 0.08 in2.0 mm
04:00 PM 73.2°F22.9°C 64.0°F17.8°C 73% 3.5 mph ENE5.6 kmh ENE 3.5 mph5.6 kmh 29.79 in1008.8 mb - 0.00 in0.0 mm 0.08 in2.0 mm
04:05 PM 73.4°F23.0°C 65.0°F18.3°C 75% 2.3 mph NE3.7 kmh NE 4.6 mph7.4 kmh 29.79 in1008.8 mb - 0.00 in0.0 mm 0.08 in2.0 mm
04:10 PM 73.8°F23.2°C 64.6°F18.1°C 73% 3.5 mph NE5.6 kmh NE 4.6 mph7.4 kmh 29.79 in1008.8 mb - 0.00 in0.0 mm 0.08 in2.0 mm
04:15 PM 74.0°F23.3°C 64.8°F18.2°C 73% 2.3 mph ENE3.7 kmh ENE 3.5 mph5.6 kmh 29.79 in1008.8 mb - 0.00 in0.0 mm 0.08 in2.0 mm
04:20 PM 74.0°F23.3°C 64.4°F18.0°C 72% 1.2 mph NNE1.9 kmh NNE 3.5 mph5.6 kmh 29.79 in1008.8 mb - 0.00 in0.0 mm 0.08 in2.0 mm
04:25 PM 74.4°F23.6°C 65.2°F18.4°C 73% 3.5 mph N5.6 kmh N 5.8 mph9.3 kmh 29.79 in1008.8 mb - 0.00 in0.0 mm 0.08 in2.0 mm
04:30 PM 73.8°F23.2°C 64.6°F18.1°C 73% 2.3 mph N3.7 kmh N 4.6 mph7.4 kmh 29.79 in1008.8 mb - 0.00 in0.0 mm 0.08 in2.0 mm
04:35 PM 74.0°F23.3°C 64.4°F18.0°C 72% 4.6 mph NNW7.4 kmh NNW 5.8 mph9.3 kmh 29.78 in1008.5 mb - 0.00 in0.0 mm 0.08 in2.0 mm
04:40 PM 73.7°F23.2°C 64.1°F17.8°C 72% 3.5 mph NNW5.6 kmh NNW 4.6 mph7.4 kmh 29.78 in1008.5 mb - 0.00 in0.0 mm 0.08 in2.0 mm
04:45 PM 73.8°F23.2°C 64.6°F18.1°C 73% 2.3 mph N3.7 kmh N 5.8 mph9.3 kmh 29.78 in1008.5 mb - 0.00 in0.0 mm 0.08 in2.0 mm
04:50 PM 73.9°F23.3°C 64.3°F17.9°C 72% 1.2 mph NNW1.9 kmh NNW 2.3 mph3.7 kmh 29.78 in1008.5 mb - 0.00 in0.0 mm 0.08 in2.0 mm
04:55 PM 73.7°F23.2°C 64.5°F18.1°C 73% 3.5 mph N5.6 kmh N 4.6 mph7.4 kmh 29.78 in1008.5 mb - 0.00 in0.0 mm 0.08 in2.0 mm
05:00 PM 73.3°F22.9°C 64.1°F17.8°C 73% 2.3 mph NNW3.7 kmh NNW 3.5 mph5.6 kmh 29.78 in1008.5 mb - 0.00 in0.0 mm 0.08 in2.0 mm
05:05 PM 74.0°F23.3°C 64.7°F18.2°C 73% 1.2 mph NNW1.9 kmh NNW 4.6 mph7.4 kmh 29.78 in1008.5 mb - 0.00 in0.0 mm 0.08 in2.0 mm
05:10 PM 74.2°F23.4°C 64.6°F18.1°C 72% 3.5 mph NNW5.6 kmh NNW 3.5 mph5.6 kmh 29.78 in1008.5 mb - 0.00 in0.0 mm 0.08 in2.0 mm
05:15 PM 74.0°F23.3°C 64.4°F18.0°C 72% 4.6 mph N7.4 kmh N 4.6 mph7.4 kmh 29.78 in1008.5 mb - 0.00 in0.0 mm 0.08 in2.0 mm
05:20 PM 73.6°F23.1°C 64.0°F17.8°C 72% 2.3 mph NNW3.7 kmh NNW 4.6 mph7.4 kmh 29.78 in1008.5 mb - 0.00 in0.0 mm 0.08 in2.0 mm
05:25 PM 73.4°F23.0°C 64.6°F18.1°C 74% 2.3 mph NNW3.7 kmh NNW 3.5 mph5.6 kmh 29.78 in1008.5 mb - 0.00 in0.0 mm 0.08 in2.0 mm
05:30 PM 73.8°F23.2°C 64.6°F18.1°C 73% 2.3 mph NW3.7 kmh NW 4.6 mph7.4 kmh 29.78 in1008.5 mb - 0.00 in0.0 mm 0.08 in2.0 mm
05:35 PM 73.6°F23.1°C 64.0°F17.8°C 72% 3.5 mph NNW5.6 kmh NNW 3.5 mph5.6 kmh 29.78 in1008.5 mb - 0.00 in0.0 mm 0.08 in2.0 mm
05:40 PM 73.4°F23.0°C 64.6°F18.1°C 74% 2.3 mph NNW3.7 kmh NNW 3.5 mph5.6 kmh 29.78 in1008.5 mb - 0.00 in0.0 mm 0.08 in2.0 mm
05:45 PM 73.4°F23.0°C 64.6°F18.1°C 74% 3.5 mph NW5.6 kmh NW 4.6 mph7.4 kmh 29.78 in1008.5 mb - 0.00 in0.0 mm 0.08 in2.0 mm
05:50 PM 73.3°F22.9°C 64.1°F17.8°C 73% 2.3 mph NW3.7 kmh NW 4.6 mph7.4 kmh 29.78 in1008.5 mb - 0.00 in0.0 mm 0.08 in2.0 mm
05:55 PM 73.0°F22.8°C 64.2°F17.9°C 74% 2.3 mph NNW3.7 kmh NNW 3.5 mph5.6 kmh 29.78 in1008.5 mb - 0.00 in0.0 mm 0.08 in2.0 mm
06:00 PM 72.9°F22.7°C 64.5°F18.1°C 75% Calm Calm 1.2 mph1.9 kmh 29.78 in1008.5 mb - 0.00 in0.0 mm 0.08 in2.0 mm
06:05 PM 73.0°F22.8°C 64.2°F17.9°C 74% 2.3 mph N3.7 kmh N 3.5 mph5.6 kmh 29.78 in1008.5 mb - 0.00 in0.0 mm 0.08 in2.0 mm
06:10 PM 73.1°F22.8°C 64.3°F17.9°C 74% Calm Calm 2.3 mph3.7 kmh 29.78 in1008.5 mb - 0.00 in0.0 mm 0.08 in2.0 mm
06:15 PM 73.2°F22.9°C 64.4°F18.0°C 74% 1.2 mph N1.9 kmh N 1.2 mph1.9 kmh 29.78 in1008.5 mb - 0.00 in0.0 mm 0.08 in2.0 mm
06:20 PM 73.1°F22.8°C 64.3°F17.9°C 74% Calm Calm 1.2 mph1.9 kmh 29.78 in1008.5 mb - 0.00 in0.0 mm 0.08 in2.0 mm
06:25 PM 73.1°F22.8°C 63.9°F17.7°C 73% 1.2 mph N1.9 kmh N 2.3 mph3.7 kmh 29.78 in1008.5 mb - 0.00 in0.0 mm 0.08 in2.0 mm
06:30 PM 73.1°F22.8°C 63.9°F17.7°C 73% Calm Calm -- 29.78 in1008.5 mb - 0.00 in0.0 mm 0.08 in2.0 mm
06:35 PM 72.9°F22.7°C 64.1°F17.8°C 74% 1.2 mph N1.9 kmh N 3.5 mph5.6 kmh 29.78 in1008.5 mb - 0.00 in0.0 mm 0.08 in2.0 mm
06:40 PM 72.8°F22.7°C 64.4°F18.0°C 75% 1.2 mph N1.9 kmh N 2.3 mph3.7 kmh 29.78 in1008.5 mb - 0.00 in0.0 mm 0.08 in2.0 mm
06:45 PM 72.6°F22.6°C 64.2°F17.9°C 75% 1.2 mph N1.9 kmh N 2.3 mph3.7 kmh 29.78 in1008.5 mb - 0.00 in0.0 mm 0.08 in2.0 mm
06:50 PM 72.4°F22.4°C 64.0°F17.8°C 75% 1.2 mph N1.9 kmh N 2.3 mph3.7 kmh 29.79 in1008.8 mb - 0.00 in0.0 mm 0.08 in2.0 mm
06:55 PM 72.1°F22.3°C 64.1°F17.8°C 76% Calm Calm 1.2 mph1.9 kmh 29.79 in1008.8 mb - 0.00 in0.0 mm 0.08 in2.0 mm
07:00 PM 71.7°F22.1°C 64.1°F17.8°C 77% 1.2 mph N1.9 kmh N 3.5 mph5.6 kmh 29.79 in1008.8 mb - 0.00 in0.0 mm 0.08 in2.0 mm
07:05 PM 71.5°F21.9°C 64.2°F17.9°C 78% Calm Calm -- 29.79 in1008.8 mb - 0.00 in0.0 mm 0.08 in2.0 mm
07:10 PM 71.2°F21.8°C 64.3°F17.9°C 79% Calm Calm -- 29.79 in1008.8 mb - 0.00 in0.0 mm 0.08 in2.0 mm
07:15 PM 70.9°F21.6°C 64.5°F18.1°C 80% Calm Calm -- 29.79 in1008.8 mb - 0.00 in0.0 mm 0.08 in2.0 mm
07:20 PM 70.7°F21.5°C 64.6°F18.1°C 81% Calm Calm -- 29.79 in1008.8 mb - 0.00 in0.0 mm 0.08 in2.0 mm
07:25 PM 70.4°F21.3°C 64.3°F17.9°C 81% Calm Calm 1.2 mph1.9 kmh 29.79 in1008.8 mb - 0.00 in0.0 mm 0.08 in2.0 mm
07:30 PM 70.2°F21.2°C 64.1°F17.8°C 81% Calm Calm 1.2 mph1.9 kmh 29.78 in1008.5 mb - 0.00 in0.0 mm 0.08 in2.0 mm
07:35 PM 69.9°F21.1°C 64.2°F17.9°C 82% Calm Calm -- 29.79 in1008.8 mb - 0.00 in0.0 mm 0.08 in2.0 mm
07:40 PM 69.7°F20.9°C 64.3°F17.9°C 83% Calm Calm 1.2 mph1.9 kmh 29.79 in1008.8 mb - 0.00 in0.0 mm 0.08 in2.0 mm
07:45 PM 69.5°F20.8°C 64.1°F17.8°C 83% Calm Calm 1.2 mph1.9 kmh 29.79 in1008.8 mb - 0.00 in0.0 mm 0.08 in2.0 mm
07:50 PM 69.3°F20.7°C 64.3°F17.9°C 84% Calm Calm 1.2 mph1.9 kmh 29.79 in1008.8 mb - 0.00 in0.0 mm 0.08 in2.0 mm
07:55 PM 69.2°F20.7°C 64.2°F17.9°C 84% Calm Calm -- 29.79 in1008.8 mb - 0.00 in0.0 mm 0.08 in2.0 mm
08:00 PM 69.1°F20.6°C 64.1°F17.8°C 84% Calm Calm -- 29.79 in1008.8 mb - 0.00 in0.0 mm 0.08 in2.0 mm
08:05 PM 69.0°F20.6°C 64.0°F17.8°C 84% Calm Calm -- 29.79 in1008.8 mb - 0.00 in0.0 mm 0.08 in2.0 mm
08:10 PM 69.0°F20.6°C 64.3°F17.9°C 85% Calm Calm -- 29.79 in1008.8 mb - 0.00 in0.0 mm 0.08 in2.0 mm
08:15 PM 68.9°F20.5°C 64.2°F17.9°C 85% Calm Calm -- 29.79 in1008.8 mb - 0.00 in0.0 mm 0.08 in2.0 mm
08:20 PM 68.8°F20.4°C 64.1°F17.8°C 85% Calm Calm -- 29.79 in1008.8 mb - 0.00 in0.0 mm 0.08 in2.0 mm
08:25 PM 68.6°F20.3°C 64.3°F17.9°C 86% Calm Calm 1.2 mph1.9 kmh 29.79 in1008.8 mb - 0.00 in0.0 mm 0.08 in2.0 mm
08:30 PM 68.5°F20.3°C 64.1°F17.8°C 86% Calm Calm -- 29.79 in1008.8 mb - 0.00 in0.0 mm 0.08 in2.0 mm
08:35 PM 68.4°F20.2°C 64.1°F17.8°C 86% Calm Calm -- 29.79 in1008.8 mb - 0.00 in0.0 mm 0.08 in2.0 mm
08:40 PM 68.4°F20.2°C 64.0°F17.8°C 86% Calm Calm -- 29.79 in1008.8 mb - 0.00 in0.0 mm 0.08 in2.0 mm
08:45 PM 68.3°F20.2°C 64.3°F17.9°C 87% Calm Calm -- 29.79 in1008.8 mb - 0.00 in0.0 mm 0.08 in2.0 mm
08:50 PM 68.3°F20.2°C 64.2°F17.9°C 87% Calm Calm -- 29.80 in1009.1 mb - 0.00 in0.0 mm 0.08 in2.0 mm
08:55 PM 68.2°F20.1°C 64.1°F17.8°C 87% Calm Calm -- 29.79 in1008.8 mb - 0.00 in0.0 mm 0.08 in2.0 mm
09:00 PM 68.1°F20.1°C 64.1°F17.8°C 87% Calm Calm -- 29.79 in1008.8 mb - 0.00 in0.0 mm 0.08 in2.0 mm
09:05 PM 68.0°F20.0°C 64.0°F17.8°C 87% Calm Calm -- 29.80 in1009.1 mb - 0.00 in0.0 mm 0.08 in2.0 mm
09:10 PM 68.0°F20.0°C 64.3°F17.9°C 88% Calm Calm -- 29.80 in1009.1 mb - 0.00 in0.0 mm 0.08 in2.0 mm
09:15 PM 67.9°F19.9°C 63.9°F17.7°C 87% Calm Calm -- 29.80 in1009.1 mb - 0.00 in0.0 mm 0.08 in2.0 mm
09:20 PM 67.8°F19.9°C 63.8°F17.7°C 87% Calm Calm -- 29.80 in1009.1 mb - 0.00 in0.0 mm 0.08 in2.0 mm
09:25 PM 67.7°F19.8°C 63.7°F17.6°C 87% Calm Calm -- 29.80 in1009.1 mb - 0.00 in0.0 mm 0.08 in2.0 mm
09:30 PM 67.6°F19.8°C 63.9°F17.7°C 88% Calm Calm -- 29.80 in1009.1 mb - 0.00 in0.0 mm 0.08 in2.0 mm
09:35 PM 67.5°F19.7°C 63.5°F17.5°C 87% Calm Calm -- 29.80 in1009.1 mb - 0.00 in0.0 mm 0.08 in2.0 mm
09:40 PM 67.4°F19.7°C 63.4°F17.4°C 87% Calm Calm -- 29.80 in1009.1 mb - 0.00 in0.0 mm 0.08 in2.0 mm
09:45 PM 67.4°F19.7°C 63.4°F17.4°C 87% Calm Calm -- 29.80 in1009.1 mb - 0.00 in0.0 mm 0.08 in2.0 mm
09:50 PM 67.3°F19.6°C 63.6°F17.6°C 88% Calm Calm -- 29.80 in1009.1 mb - 0.00 in0.0 mm 0.08 in2.0 mm
09:55 PM 67.2°F19.6°C 63.2°F17.3°C 87% Calm Calm -- 29.80 in1009.1 mb - 0.00 in0.0 mm 0.08 in2.0 mm
10:00 PM 67.0°F19.4°C 63.0°F17.2°C 87% Calm Calm -- 29.80 in1009.1 mb - 0.00 in0.0 mm 0.08 in2.0 mm
10:05 PM 66.9°F19.4°C 63.2°F17.3°C 88% Calm Calm -- 29.80 in1009.1 mb - 0.00 in0.0 mm 0.08 in2.0 mm
10:10 PM 66.7°F19.3°C 63.0°F17.2°C 88% Calm Calm -- 29.80 in1009.1 mb - 0.00 in0.0 mm 0.08 in2.0 mm
10:15 PM 66.5°F19.2°C 62.8°F17.1°C 88% Calm Calm -- 29.80 in1009.1 mb - 0.00 in0.0 mm 0.08 in2.0 mm
10:20 PM 66.3°F19.1°C 62.9°F17.2°C 89% Calm Calm -- 29.80 in1009.1 mb - 0.00 in0.0 mm 0.08 in2.0 mm
10:25 PM 66.1°F18.9°C 63.1°F17.3°C 90% Calm Calm 1.2 mph1.9 kmh 29.80 in1009.1 mb - 0.00 in0.0 mm 0.08 in2.0 mm
10:30 PM 65.9°F18.8°C 63.2°F17.3°C 91% 2.3 mph WSW3.7 kmh WSW 3.5 mph5.6 kmh 29.80 in1009.1 mb - 0.00 in0.0 mm 0.08 in2.0 mm
10:35 PM 65.7°F18.7°C 63.0°F17.2°C 91% Calm Calm 1.2 mph1.9 kmh 29.80 in1009.1 mb - 0.00 in0.0 mm 0.08 in2.0 mm
10:40 PM 65.5°F18.6°C 62.8°F17.1°C 91% Calm Calm 2.3 mph3.7 kmh 29.80 in1009.1 mb - 0.00 in0.0 mm 0.08 in2.0 mm
10:45 PM 65.3°F18.5°C 62.6°F17.0°C 91% Calm Calm -- 29.80 in1009.1 mb - 0.00 in0.0 mm 0.08 in2.0 mm
10:50 PM 65.1°F18.4°C 62.7°F17.1°C 92% Calm Calm 1.2 mph1.9 kmh 29.80 in1009.1 mb - 0.00 in0.0 mm 0.08 in2.0 mm
10:55 PM 64.9°F18.3°C 62.6°F17.0°C 92% Calm Calm -- 29.80 in1009.1 mb - 0.00 in0.0 mm 0.08 in2.0 mm
11:00 PM 64.8°F18.2°C 62.4°F16.9°C 92% Calm Calm -- 29.80 in1009.1 mb - 0.00 in0.0 mm 0.09 in2.3 mm
11:05 PM 64.7°F18.2°C 62.3°F16.8°C 92% Calm Calm -- 29.80 in1009.1 mb - 0.00 in0.0 mm 0.09 in2.3 mm
11:10 PM 64.6°F18.1°C 62.2°F16.8°C 92% Calm Calm -- 29.80 in1009.1 mb - 0.00 in0.0 mm 0.09 in2.3 mm
11:15 PM 64.5°F18.1°C 62.4°F16.9°C 93% Calm Calm -- 29.80 in1009.1 mb - 0.00 in0.0 mm 0.09 in2.3 mm
11:20 PM 64.4°F18.0°C 62.4°F16.9°C 93% Calm Calm 2.3 mph3.7 kmh 29.80 in1009.1 mb - 0.00 in0.0 mm 0.09 in2.3 mm
11:25 PM 64.3°F17.9°C 62.2°F16.8°C 93% 1.2 mph NW1.9 kmh NW 2.3 mph3.7 kmh 29.80 in1009.1 mb - 0.00 in0.0 mm 0.09 in2.3 mm
11:30 PM 64.2°F17.9°C 62.1°F16.7°C 93% Calm Calm 2.3 mph3.7 kmh 29.80 in1009.1 mb - 0.00 in0.0 mm 0.09 in2.3 mm
11:35 PM 64.1°F17.8°C 62.0°F16.7°C 93% 1.2 mph NW1.9 kmh NW 1.2 mph1.9 kmh 29.80 in1009.1 mb - 0.00 in0.0 mm 0.09 in2.3 mm
11:40 PM 64.1°F17.8°C 62.0°F16.7°C 93% 1.2 mph NW1.9 kmh NW 3.5 mph5.6 kmh 29.81 in1009.5 mb - 0.00 in0.0 mm 0.09 in2.3 mm
11:45 PM 64.1°F17.8°C 62.0°F16.7°C 93% Calm Calm 2.3 mph3.7 kmh 29.81 in1009.5 mb - 0.00 in0.0 mm 0.09 in2.3 mm
11:50 PM 64.0°F17.8°C 61.9°F16.6°C 93% Calm Calm 1.2 mph1.9 kmh 29.81 in1009.5 mb - 0.00 in0.0 mm 0.09 in2.3 mm
11:55 PM 63.9°F17.7°C 61.8°F16.6°C 93% Calm Calm 1.2 mph1.9 kmh 29.81 in1009.5 mb - 0.00 in0.0 mm 0.09 in2.3 mm